Hovedside
METAR-TAF:

METAR-TAF

Lufthavner :

Trollhättan-Vänersborg, Sverige

breddegrad: 58-19N, lengdegrad: 012-21E, høyde over havet: 41 m

Gjeldene værobservasjon

Denne rapporten ble laget for 27 minutter siden, klokken 06:50 UTC
Vind 6 kt fra Sørøst
Temperatur 11°C
Luftfuktighet 66%
Trykk 1024 hPa
Sikt 10 km eller mer
ingen skyer under 1500 m og ingen bygeskyer

METAR: ESGT 230650Z 13006KT CAVOK 11/05 Q1024

Tid: 09:17 (07:17 UTC)

Varsel

Denne rapporten ble laget for 1 time og 47 minutter siden, klokken 05:30 UTC
Varsel gyldig fra 23. klokken 06 UTC til 23. klokken 15 UTC
Vind 5 kt fra Øst-sørøst
Sikt 10 km eller mer
ingen skyer under 1500 m og ingen bygeskyer

TAF: ESGT 230530Z 2306/2315 12005KT CAVOK

Værobservasjoner og værvarsel for over 4000 flyplasser (METAR- og TAF-rapporter).

Tilgjengelige stasjoner er representert av de røde og gule prikkene på kartet.

Hold musepekeren over prikken for å se navnet på stasjonen.

Klikk så for å se værobservasjoner og -varsler.

For å forandre kartet kan du klikke på den grønne knappen med svart kryss for å zoome inn, på den grønne knappen med strek for å zoome ut, eller på de grønne pilene for å se tilstøtende kart.


METAR-TAF: